Hilton Head Island, South Carolina
Current Conditions -  °F | °C
As of 4:50 PM on Thursday 18 Dec 2014 (Local Time) from KHXD Reporting Station
Clear Clear  
Wind Chill: 54°   Ceiling: Unl
Heat Index: 54°   Visibility: 10mi
Dew Point: 46°   Wind: 5mph
Humidity: 77%   Direction: 180°S
Pressure: 30.09"   Gusts: NA
Location:  32.15°N, 80.76°W
Report Text: KHXD 182150Z 18004KT 10SM SKC 12/08 A3009
Loading
Personal Weather Stations






























Interactive Weather Map New forecast layout! Learn more

10-Day Weather Forecast

Advertisements
Track Severe Weather on mobile